Time;durP1;ratioP1;P1;durP2;ratioP2;P2;SDS_P1;SDS_P2;PMS_P1;PMS_P2;Temp;Humidity;BMP_temperature;BMP_pressure;BME280_temperature;BME280_humidity;BME280_pressure;Samples;Min_cycle;Max_cycle;Signal;HPM_P1;HPM_P2
2022/01/28 00:01:03;;;;;;;26.63;4.00;;;;;;;;;;5042536;28;20440;-62
2022/01/28 00:03:31;;;;;;;29.45;2.97;;;;;;;;;;5040991;28;20048;-62
2022/01/28 00:05:58;;;;;;;24.02;4.43;;;;;;;;;;5039264;28;20045;-62
2022/01/28 00:08:24;;;;;;;29.85;4.10;;;;;;;;;;5038728;28;20071;-62
2022/01/28 00:10:52;;;;;;;30.80;4.32;;;;;;;;;;5037604;28;20037;-62
2022/01/28 00:13:22;;;;;;;19.20;3.75;;;;;;;;;;5041774;28;20065;-61
2022/01/28 00:40:12;;;;;;;28.40;3.75;;;;;;;;;;5042521;28;20064;-62
2022/01/28 00:42:39;;;;;;;15.95;3.15;;;;;;;;;;5048984;28;20099;-62
2022/01/28 00:45:05;;;;;;;18.95;2.67;;;;;;;;;;5049560;28;20057;-62
2022/01/28 00:47:31;;;;;;;16.73;3.53;;;;;;;;;;5046530;28;20041;-62
2022/01/28 00:49:57;;;;;;;14.32;2.95;;;;;;;;;;5046451;28;20037;-62
2022/01/28 00:52:23;;;;;;;14.55;2.58;;;;;;;;;;5046022;28;20044;-62
2022/01/28 00:54:50;;;;;;;11.88;3.17;;;;;;;;;;5042704;28;20045;-62
2022/01/28 00:57:16;;;;;;;15.60;3.30;;;;;;;;;;5038507;28;20490;-62
2022/01/28 00:59:42;;;;;;;24.92;3.00;;;;;;;;;;5039956;28;20045;-62
2022/01/28 01:02:08;;;;;;;17.95;2.72;;;;;;;;;;5037031;28;20091;-62
2022/01/28 01:04:34;;;;;;;29.73;6.85;;;;;;;;;;5033889;28;20030;-62
2022/01/28 01:07:01;;;;;;;27.67;3.83;;;;;;;;;;5031858;28;20037;-62
2022/01/28 01:09:27;;;;;;;36.08;4.57;;;;;;;;;;5036904;28;20401;-62
2022/01/28 01:11:53;;;;;;;24.65;4.30;;;;;;;;;;5045094;28;20045;-62
2022/01/28 01:14:19;;;;;;;18.95;3.92;;;;;;;;;;5044761;28;20053;-62
2022/01/28 01:17:11;;;;;;;24.05;3.78;;;;;;;;;;5042599;28;20041;-62
2022/01/28 01:19:42;;;;;;;31.73;3.92;;;;;;;;;;5041318;28;20041;-62
2022/01/28 01:22:09;;;;;;;30.38;4.72;;;;;;;;;;5040550;28;20081;-62
2022/01/28 01:24:47;;;;;;;21.60;4.00;;;;;;;;;;5052710;28;20049;-62
2022/01/28 01:27:13;;;;;;;28.83;3.92;;;;;;;;;;5035917;28;20049;-62
2022/01/28 01:29:43;;;;;;;30.23;4.50;;;;;;;;;;5040568;28;20044;-62
2022/01/28 01:32:14;;;;;;;24.88;3.83;;;;;;;;;;5047476;28;20041;-62
2022/01/28 01:34:40;;;;;;;34.35;7.20;;;;;;;;;;5044759;28;20108;-62
2022/01/28 01:37:07;;;;;;;32.10;4.00;;;;;;;;;;5060466;28;20079;-62
2022/01/28 01:39:35;;;;;;;42.30;5.47;;;;;;;;;;5041310;28;20075;-62
2022/01/28 01:42:20;;;;;;;30.05;4.80;;;;;;;;;;5055696;28;20060;-62
2022/01/28 01:45:16;;;;;;;27.38;5.15;;;;;;;;;;5043006;28;20049;-62
2022/01/28 01:53:01;;;;;;;21.70;3.83;;;;;;;;;;5044860;28;20128;-62
2022/01/28 01:55:28;;;;;;;26.27;4.35;;;;;;;;;;5062171;28;20077;-62
2022/01/28 01:57:54;;;;;;;38.38;4.60;;;;;;;;;;5045263;28;20049;-62
2022/01/28 02:00:20;;;;;;;24.77;3.67;;;;;;;;;;5044592;28;20404;-62
2022/01/28 02:02:46;;;;;;;33.55;4.47;;;;;;;;;;5043336;28;20069;-62
2022/01/28 02:05:12;;;;;;;26.92;4.65;;;;;;;;;;5055523;28;20127;-62
2022/01/28 02:07:40;;;;;;;19.73;4.47;;;;;;;;;;5039019;28;20543;-62
2022/01/28 02:10:06;;;;;;;26.48;4.57;;;;;;;;;;5034098;28;20045;-62
2022/01/28 02:12:45;;;;;;;30.40;5.20;;;;;;;;;;5038283;28;20053;-62
2022/01/28 02:15:11;;;;;;;33.90;6.00;;;;;;;;;;5031428;28;20099;-61
2022/01/28 02:17:38;;;;;;;28.48;4.95;;;;;;;;;;5053821;28;20496;-62
2022/01/28 02:20:05;;;;;;;30.15;5.28;;;;;;;;;;5040588;28;20377;-62
2022/01/28 02:22:31;;;;;;;22.63;3.65;;;;;;;;;;5046317;28;20502;-62
2022/01/28 02:24:58;;;;;;;27.30;6.63;;;;;;;;;;5043862;28;20037;-62
2022/01/28 02:27:25;;;;;;;26.05;4.68;;;;;;;;;;5055642;28;20052;-62
2022/01/28 02:29:52;;;;;;;23.27;4.78;;;;;;;;;;5040764;28;20124;-62
2022/01/28 02:32:18;;;;;;;26.75;5.22;;;;;;;;;;5042938;28;20049;-62
2022/01/28 02:34:44;;;;;;;31.27;5.38;;;;;;;;;;5049526;28;20040;-62
2022/01/28 02:37:10;;;;;;;27.33;4.65;;;;;;;;;;5040743;28;20183;-62
2022/01/28 02:39:36;;;;;;;30.95;4.70;;;;;;;;;;5032617;28;20580;-62
2022/01/28 02:42:15;;;;;;;30.40;5.03;;;;;;;;;;5034855;28;20515;-62
2022/01/28 02:44:48;;;;;;;35.22;5.10;;;;;;;;;;5039186;28;20785;-62
2022/01/28 02:47:17;;;;;;;27.52;4.82;;;;;;;;;;5042181;28;20090;-62
2022/01/28 02:49:45;;;;;;;34.17;5.80;;;;;;;;;;5031310;28;20090;-62
2022/01/28 02:52:19;;;;;;;34.08;5.60;;;;;;;;;;5049015;28;20040;-62
2022/01/28 02:54:48;;;;;;;27.75;4.78;;;;;;;;;;5046007;28;20055;-62
2022/01/28 02:57:19;;;;;;;33.42;5.78;;;;;;;;;;5039502;28;20052;-62
2022/01/28 02:59:45;;;;;;;33.58;5.15;;;;;;;;;;5046052;28;20045;-62
2022/01/28 03:02:11;;;;;;;35.20;6.68;;;;;;;;;;5048827;28;20056;-62
2022/01/28 03:05:02;;;;;;;31.25;4.47;;;;;;;;;;5050275;28;20122;-62
2022/01/28 03:07:25;;;;;;;38.65;5.55;;;;;;;;;;5049545;28;20050;-62
2022/01/28 03:10:25;;;;;;;28.23;4.40;;;;;;;;;;5046602;28;20101;-62
2022/01/28 03:15:25;;;;;;;24.77;5.20;;;;;;;;;;5042797;28;20052;-62
2022/01/28 03:18:06;;;;;;;34.35;3.83;;;;;;;;;;5038605;28;20052;-62
2022/01/28 03:20:39;;;;;;;32.08;4.57;;;;;;;;;;5041422;28;20053;-62
2022/01/28 03:23:06;;;;;;;24.38;3.95;;;;;;;;;;5036403;28;20044;-62
2022/01/28 03:25:35;;;;;;;33.30;5.30;;;;;;;;;;5034772;28;20049;-62
2022/01/28 03:28:02;;;;;;;23.45;4.40;;;;;;;;;;5038876;28;21599;-61
2022/01/28 03:30:28;;;;;;;26.17;4.05;;;;;;;;;;5040047;28;20056;-61
2022/01/28 03:32:54;;;;;;;28.92;4.82;;;;;;;;;;5041563;28;20052;-61
2022/01/28 03:35:20;;;;;;;23.48;4.65;;;;;;;;;;5039971;28;20496;-62
2022/01/28 03:37:47;;;;;;;40.10;4.15;;;;;;;;;;5037340;28;20124;-62
2022/01/28 03:40:17;;;;;;;34.45;4.43;;;;;;;;;;5044870;28;20068;-61
2022/01/28 03:42:44;;;;;;;23.58;3.95;;;;;;;;;;5042372;28;20061;-61
2022/01/28 03:45:10;;;;;;;22.80;3.88;;;;;;;;;;5040957;28;20150;-62
2022/01/28 03:47:36;;;;;;;31.27;5.85;;;;;;;;;;5040015;28;20122;-62
2022/01/28 03:50:02;;;;;;;18.35;3.75;;;;;;;;;;5038834;28;20037;-61
2022/01/28 03:52:28;;;;;;;30.35;5.57;;;;;;;;;;5036347;28;20037;-62
2022/01/28 03:54:54;;;;;;;27.48;4.88;;;;;;;;;;5050580;28;20049;-62
2022/01/28 03:57:20;;;;;;;26.30;3.83;;;;;;;;;;5062863;28;20047;-62
2022/01/28 03:59:46;;;;;;;26.40;5.00;;;;;;;;;;5047864;28;20369;-61
2022/01/28 04:02:13;;;;;;;27.98;4.47;;;;;;;;;;5043672;28;20045;-61
2022/01/28 04:12:55;;;;;;;29.27;4.97;;;;;;;;;;5036215;28;20052;-62
2022/01/28 04:15:36;;;;;;;34.03;5.20;;;;;;;;;;5039268;28;20512;-62
2022/01/28 04:18:02;;;;;;;37.40;6.50;;;;;;;;;;5048539;28;20045;-61
2022/01/28 04:20:30;;;;;;;37.33;5.60;;;;;;;;;;5047932;28;20048;-61
2022/01/28 04:22:57;;;;;;;22.35;4.80;;;;;;;;;;5063195;28;20052;-62
2022/01/28 04:25:23;;;;;;;23.45;4.32;;;;;;;;;;5044997;28;20048;-62
2022/01/28 04:27:49;;;;;;;29.00;4.88;;;;;;;;;;5043671;28;20080;-62
2022/01/28 04:30:15;;;;;;;42.00;7.22;;;;;;;;;;5059303;28;20135;-62
2022/01/28 04:32:41;;;;;;;31.10;5.40;;;;;;;;;;5038988;28;20447;-62
2022/01/28 04:35:08;;;;;;;29.92;5.25;;;;;;;;;;5053124;28;20053;-62
2022/01/28 04:37:47;;;;;;;31.70;5.40;;;;;;;;;;5041167;28;20048;-62
2022/01/28 04:40:19;;;;;;;35.00;5.78;;;;;;;;;;5039337;28;20045;-62
2022/01/28 04:45:21;;;;;;;37.33;4.85;;;;;;;;;;5036983;28;20487;-62
2022/01/28 04:48:07;;;;;;;38.10;6.22;;;;;;;;;;5039439;28;20496;-62
2022/01/28 04:53:19;;;;;;;30.30;5.90;;;;;;;;;;5041000;28;20052;-62
2022/01/28 04:56:00;;;;;;;38.03;6.85;;;;;;;;;;5039489;28;20129;-61
2022/01/28 05:01:19;;;;;;;28.42;5.72;;;;;;;;;;5039470;28;20095;-62
2022/01/28 05:04:14;;;;;;;39.63;5.75;;;;;;;;;;5037920;28;20486;-62
2022/01/28 05:07:13;;;;;;;35.00;6.20;;;;;;;;;;5037568;28;20062;-62
2022/01/28 05:10:04;;;;;;;29.15;4.88;;;;;;;;;;5039376;28;20372;-62
2022/01/28 05:12:54;;;;;;;29.20;4.82;;;;;;;;;;5046263;28;20094;-61
2022/01/28 05:23:40;;;;;;;33.45;5.00;;;;;;;;;;5033678;28;20096;-62
2022/01/28 05:28:51;;;;;;;25.75;4.35;;;;;;;;;;5034503;28;20107;-62
2022/01/28 05:31:18;;;;;;;30.75;5.55;;;;;;;;;;5035609;28;20430;-61
2022/01/28 05:33:45;;;;;;;29.27;5.80;;;;;;;;;;5045628;28;20048;-62
2022/01/28 05:36:11;;;;;;;24.60;4.47;;;;;;;;;;5033934;28;20037;-61
2022/01/28 05:38:37;;;;;;;29.27;3.95;;;;;;;;;;5044005;28;20079;-61
2022/01/28 05:41:03;;;;;;;26.23;4.45;;;;;;;;;;5036688;28;20038;-62
2022/01/28 05:43:29;;;;;;;19.60;4.45;;;;;;;;;;5044769;28;20053;-62
2022/01/28 05:45:55;;;;;;;26.25;4.68;;;;;;;;;;5043216;28;20476;-62
2022/01/28 05:48:22;;;;;;;27.08;5.53;;;;;;;;;;5036264;28;20036;-61
2022/01/28 05:50:48;;;;;;;30.75;4.53;;;;;;;;;;5034592;28;20048;-63
2022/01/28 05:53:15;;;;;;;35.70;5.57;;;;;;;;;;5032578;28;20045;-62
2022/01/28 05:55:41;;;;;;;23.85;3.72;;;;;;;;;;5035339;28;20099;-62
2022/01/28 05:58:07;;;;;;;30.23;5.30;;;;;;;;;;5042039;28;20408;-62
2022/01/28 06:00:34;;;;;;;33.47;5.80;;;;;;;;;;5046750;28;20112;-61
2022/01/28 06:03:00;;;;;;;31.05;4.45;;;;;;;;;;5046497;28;20036;-61
2022/01/28 06:05:30;;;;;;;28.17;4.40;;;;;;;;;;5047000;28;20445;-61
2022/01/28 06:07:56;;;;;;;27.48;4.93;;;;;;;;;;5045776;28;20041;-61
2022/01/28 06:10:22;;;;;;;28.20;5.95;;;;;;;;;;5047257;28;20049;-62
2022/01/28 06:12:49;;;;;;;24.70;4.90;;;;;;;;;;5032058;28;20041;-62
2022/01/28 06:15:15;;;;;;;29.23;3.95;;;;;;;;;;5044995;28;20076;-62
2022/01/28 06:17:41;;;;;;;26.50;6.53;;;;;;;;;;5048305;28;20041;-62
2022/01/28 06:20:09;;;;;;;30.98;4.90;;;;;;;;;;5045503;28;20045;-62
2022/01/28 06:22:39;;;;;;;35.10;6.43;;;;;;;;;;5045866;28;20497;-62
2022/01/28 06:25:06;;;;;;;31.48;5.25;;;;;;;;;;5050388;28;20049;-62
2022/01/28 06:27:32;;;;;;;31.60;4.13;;;;;;;;;;5044059;28;20077;-62
2022/01/28 06:29:58;;;;;;;27.35;5.03;;;;;;;;;;5045157;28;20089;-62
2022/01/28 06:32:24;;;;;;;25.83;4.63;;;;;;;;;;5043809;28;20045;-62
2022/01/28 06:34:50;;;;;;;30.05;5.40;;;;;;;;;;5046067;28;20074;-61
2022/01/28 06:37:16;;;;;;;31.40;4.93;;;;;;;;;;5043744;28;20148;-61
2022/01/28 06:39:42;;;;;;;31.05;4.78;;;;;;;;;;5041149;28;20400;-62
2022/01/28 06:42:09;;;;;;;28.17;5.50;;;;;;;;;;5035548;28;20057;-62
2022/01/28 06:44:35;;;;;;;34.22;5.82;;;;;;;;;;5032718;28;20072;-62
2022/01/28 06:47:01;;;;;;;26.10;4.07;;;;;;;;;;5033770;28;20041;-62
2022/01/28 06:49:27;;;;;;;29.17;6.38;;;;;;;;;;5033617;28;20184;-62
2022/01/28 06:51:54;;;;;;;31.70;4.88;;;;;;;;;;5034033;28;20491;-62
2022/01/28 06:54:20;;;;;;;36.05;5.13;;;;;;;;;;5034609;28;20073;-62
2022/01/28 06:56:46;;;;;;;24.88;4.53;;;;;;;;;;5032972;28;20073;-62
2022/01/28 06:59:12;;;;;;;33.38;4.57;;;;;;;;;;5036789;28;20080;-62
2022/01/28 07:01:38;;;;;;;27.35;5.60;;;;;;;;;;5034080;28;20095;-63
2022/01/28 07:04:04;;;;;;;29.65;5.70;;;;;;;;;;5033655;28;20029;-62
2022/01/28 07:06:30;;;;;;;38.63;5.35;;;;;;;;;;5034031;28;20491;-62
2022/01/28 07:08:57;;;;;;;36.08;4.93;;;;;;;;;;5033268;28;20443;-63
2022/01/28 07:11:23;;;;;;;34.80;4.13;;;;;;;;;;5034540;28;20163;-63
2022/01/28 07:13:49;;;;;;;25.35;4.47;;;;;;;;;;5044616;28;20040;-62
2022/01/28 07:16:15;;;;;;;29.58;5.28;;;;;;;;;;5033631;28;20444;-62
2022/01/28 07:18:41;;;;;;;39.17;5.43;;;;;;;;;;5033903;28;20046;-63
2022/01/28 07:21:07;;;;;;;35.90;4.90;;;;;;;;;;5037402;28;20124;-63
2022/01/28 07:23:33;;;;;;;36.08;5.63;;;;;;;;;;5040487;28;20507;-62
2022/01/28 07:25:59;;;;;;;26.88;5.50;;;;;;;;;;5033495;28;20041;-63
2022/01/28 07:28:26;;;;;;;27.42;4.90;;;;;;;;;;5033551;28;20100;-63
2022/01/28 07:30:52;;;;;;;36.55;5.75;;;;;;;;;;5032198;28;20556;-63
2022/01/28 07:33:19;;;;;;;31.73;6.13;;;;;;;;;;5036138;28;20136;-70
2022/01/28 07:35:46;;;;;;;28.95;4.60;;;;;;;;;;5034053;28;20053;-63
2022/01/28 07:38:13;;;;;;;35.80;5.13;;;;;;;;;;5033763;28;20037;-62
2022/01/28 07:40:39;;;;;;;31.25;6.05;;;;;;;;;;5034948;28;20123;-62
2022/01/28 07:43:05;;;;;;;42.97;6.18;;;;;;;;;;5034150;28;20065;-63
2022/01/28 07:45:31;;;;;;;42.47;6.57;;;;;;;;;;5032119;28;20401;-62
2022/01/28 07:47:57;;;;;;;44.95;10.23;;;;;;;;;;5032685;28;20041;-62
2022/01/28 07:50:23;;;;;;;52.47;12.23;;;;;;;;;;5031641;28;20400;-62
2022/01/28 07:52:49;;;;;;;58.92;16.50;;;;;;;;;;5031724;28;20049;-62
2022/01/28 07:55:15;;;;;;;53.78;11.30;;;;;;;;;;5037912;28;20048;-63
2022/01/28 07:57:43;;;;;;;56.70;10.38;;;;;;;;;;5035944;28;20496;-63
2022/01/28 08:00:10;;;;;;;35.42;8.10;;;;;;;;;;5035306;28;20046;-62
2022/01/28 08:02:36;;;;;;;49.47;7.53;;;;;;;;;;5035519;28;20357;-63
2022/01/28 08:05:03;;;;;;;37.10;6.22;;;;;;;;;;5031380;28;20054;-62
2022/01/28 08:07:29;;;;;;;37.85;6.68;;;;;;;;;;5033476;28;20057;-62
2022/01/28 08:09:55;;;;;;;25.02;5.32;;;;;;;;;;5035873;28;20056;-63
2022/01/28 08:12:21;;;;;;;26.13;6.90;;;;;;;;;;5055399;28;20049;-62
2022/01/28 08:14:48;;;;;;;24.25;6.03;;;;;;;;;;5044271;28;20043;-63
2022/01/28 08:17:14;;;;;;;33.90;5.82;;;;;;;;;;5045742;28;20126;-62
2022/01/28 08:19:40;;;;;;;25.83;4.43;;;;;;;;;;5043946;28;20437;-62
2022/01/28 08:22:07;;;;;;;35.30;5.07;;;;;;;;;;5056127;28;20056;-62
2022/01/28 08:24:33;;;;;;;30.55;4.38;;;;;;;;;;5040968;28;20044;-63
2022/01/28 08:26:59;;;;;;;31.48;4.85;;;;;;;;;;5042094;28;20049;-63
2022/01/28 08:29:25;;;;;;;35.67;4.38;;;;;;;;;;5041041;28;20045;-62
2022/01/28 08:31:51;;;;;;;31.35;4.47;;;;;;;;;;5041709;28;20033;-62
2022/01/28 08:34:18;;;;;;;26.75;3.85;;;;;;;;;;5039475;28;20400;-62
2022/01/28 08:36:44;;;;;;;27.77;4.47;;;;;;;;;;5040860;28;20116;-63
2022/01/28 08:39:11;;;;;;;24.83;4.95;;;;;;;;;;5038209;28;20453;-62
2022/01/28 08:41:40;;;;;;;34.40;4.50;;;;;;;;;;5039457;28;20033;-62
2022/01/28 08:44:06;;;;;;;38.85;5.47;;;;;;;;;;5040517;28;20065;-61
2022/01/28 08:46:32;;;;;;;31.88;5.13;;;;;;;;;;5039718;28;20381;-62
2022/01/28 08:48:59;;;;;;;30.98;4.22;;;;;;;;;;5036561;28;20138;-62
2022/01/28 08:51:25;;;;;;;31.10;4.93;;;;;;;;;;5036991;28;20072;-61
2022/01/28 08:53:53;;;;;;;33.28;4.68;;;;;;;;;;5037148;28;20449;-61
2022/01/28 08:56:19;;;;;;;30.23;5.82;;;;;;;;;;5034735;28;20120;-61
2022/01/28 08:58:45;;;;;;;31.13;6.63;;;;;;;;;;5037013;28;20530;-61
2022/01/28 09:01:11;;;;;;;29.05;4.68;;;;;;;;;;5035734;28;20049;-61
2022/01/28 09:03:38;;;;;;;24.40;4.53;;;;;;;;;;5051133;28;20049;-61
2022/01/28 09:06:04;;;;;;;28.88;4.97;;;;;;;;;;5046922;28;20033;-62
2022/01/28 09:08:30;;;;;;;33.72;4.85;;;;;;;;;;5048493;28;20052;-62
2022/01/28 09:10:58;;;;;;;25.17;4.55;;;;;;;;;;5059512;28;20048;-61
2022/01/28 09:13:28;;;;;;;37.53;4.57;;;;;;;;;;5048319;28;20115;-63
2022/01/28 09:15:55;;;;;;;32.08;4.00;;;;;;;;;;5045350;28;20049;-62
2022/01/28 09:18:23;;;;;;;33.63;4.75;;;;;;;;;;5059153;28;20049;-62
2022/01/28 09:20:49;;;;;;;35.05;5.68;;;;;;;;;;5042511;28;20047;-61
2022/01/28 09:23:15;;;;;;;29.25;4.35;;;;;;;;;;5057070;28;20174;-61
2022/01/28 09:25:41;;;;;;;31.17;5.15;;;;;;;;;;5058163;28;20138;-61
2022/01/28 09:28:08;;;;;;;37.78;5.93;;;;;;;;;;5047697;28;20041;-61
2022/01/28 09:30:34;;;;;;;32.42;4.97;;;;;;;;;;5046186;28;20100;-61
2022/01/28 09:33:01;;;;;;;28.48;4.50;;;;;;;;;;5046893;28;20511;-61
2022/01/28 09:35:28;;;;;;;31.23;5.53;;;;;;;;;;5047574;28;20508;-61
2022/01/28 09:37:54;;;;;;;30.58;4.47;;;;;;;;;;5043973;28;20515;-61
2022/01/28 09:40:21;;;;;;;28.45;4.18;;;;;;;;;;5045228;28;20029;-61
2022/01/28 09:42:48;;;;;;;31.08;5.45;;;;;;;;;;5043917;28;20496;-61
2022/01/28 09:45:16;;;;;;;28.58;4.43;;;;;;;;;;5042416;28;20095;-61
2022/01/28 09:47:46;;;;;;;24.33;3.90;;;;;;;;;;5042541;28;20052;-61
2022/01/28 09:50:12;;;;;;;36.92;4.10;;;;;;;;;;5055515;28;20120;-61
2022/01/28 09:52:38;;;;;;;29.15;4.72;;;;;;;;;;5041596;28;20457;-61
2022/01/28 09:55:05;;;;;;;28.02;4.60;;;;;;;;;;5056938;28;20057;-61
2022/01/28 09:57:32;;;;;;;28.83;3.65;;;;;;;;;;5061152;28;20595;-62
2022/01/28 09:59:58;;;;;;;31.50;5.53;;;;;;;;;;5062644;28;20094;-62
2022/01/28 10:02:43;;;;;;;28.63;5.47;;;;;;;;;;5047039;28;20041;-61
2022/01/28 10:05:24;;;;;;;30.23;5.35;;;;;;;;;;5044485;28;20041;-61
2022/01/28 10:07:59;;;;;;;35.97;5.80;;;;;;;;;;5043720;28;20385;-61
2022/01/28 10:10:26;;;;;;;30.23;4.63;;;;;;;;;;5041252;28;20045;-62
2022/01/28 10:13:26;;;;;;;33.30;5.05;;;;;;;;;;5044568;28;20115;-61
2022/01/28 10:15:54;;;;;;;33.58;4.25;;;;;;;;;;5050166;28;20128;-61
2022/01/28 10:18:20;;;;;;;35.17;5.47;;;;;;;;;;5049233;28;20068;-62
2022/01/28 10:20:46;;;;;;;35.40;5.80;;;;;;;;;;5045262;28;20045;-65
2022/01/28 10:23:14;;;;;;;33.42;5.15;;;;;;;;;;5060118;28;20129;-62
2022/01/28 10:25:42;;;;;;;25.98;4.07;;;;;;;;;;5044503;28;20060;-62
2022/01/28 10:28:10;;;;;;;26.40;4.60;;;;;;;;;;5044006;28;20049;-63
2022/01/28 10:30:38;;;;;;;30.13;3.80;;;;;;;;;;5041696;28;20405;-62
2022/01/28 10:33:11;;;;;;;24.33;4.85;;;;;;;;;;5055923;28;20056;-62
2022/01/28 10:35:38;;;;;;;21.73;3.85;;;;;;;;;;5039202;28;20123;-62
2022/01/28 10:38:07;;;;;;;34.03;5.00;;;;;;;;;;5042000;28;20132;-67
2022/01/28 10:40:34;;;;;;;24.30;5.13;;;;;;;;;;5038979;28;20048;-62
2022/01/28 10:43:00;;;;;;;29.13;3.88;;;;;;;;;;5037260;28;20049;-63
2022/01/28 10:45:31;;;;;;;30.55;3.80;;;;;;;;;;5043098;28;20037;-63
2022/01/28 10:47:58;;;;;;;33.00;4.00;;;;;;;;;;5045876;28;20095;-62
2022/01/28 10:50:29;;;;;;;32.47;4.65;;;;;;;;;;5044788;28;20128;-62
2022/01/28 10:53:12;;;;;;;27.80;4.00;;;;;;;;;;5045779;28;20049;-62
2022/01/28 10:55:39;;;;;;;28.42;4.60;;;;;;;;;;5045406;28;20123;-62
2022/01/28 10:58:07;;;;;;;25.88;3.97;;;;;;;;;;5043915;28;20057;-62
2022/01/28 11:00:34;;;;;;;20.75;3.40;;;;;;;;;;5059200;28;20103;-63
2022/01/28 11:03:01;;;;;;;36.33;4.85;;;;;;;;;;5056809;28;20077;-62
2022/01/28 11:05:28;;;;;;;23.63;4.97;;;;;;;;;;5040139;28;20038;-62
2022/01/28 11:07:55;;;;;;;29.92;4.55;;;;;;;;;;5038427;28;20120;-62
2022/01/28 11:10:21;;;;;;;21.77;3.53;;;;;;;;;;5037472;28;20121;-63
2022/01/28 11:12:47;;;;;;;26.08;4.32;;;;;;;;;;5035831;28;20056;-63
2022/01/28 11:15:13;;;;;;;31.02;3.90;;;;;;;;;;5059638;28;20079;-62
2022/01/28 11:17:40;;;;;;;29.00;3.35;;;;;;;;;;5040353;28;20037;-62
2022/01/28 11:20:07;;;;;;;19.48;4.13;;;;;;;;;;5051081;28;20106;-62
2022/01/28 11:22:53;;;;;;;22.88;4.97;;;;;;;;;;5035698;28;20492;-62
2022/01/28 11:25:26;;;;;;;28.05;4.22;;;;;;;;;;5042025;28;20509;-62
2022/01/28 11:27:52;;;;;;;25.42;3.92;;;;;;;;;;5040581;28;20782;-62
2022/01/28 11:30:25;;;;;;;31.90;4.15;;;;;;;;;;5028078;28;20048;-63
2022/01/28 11:33:00;;;;;;;34.63;5.68;;;;;;;;;;5043713;28;20049;-63
2022/01/28 11:35:29;;;;;;;22.45;3.97;;;;;;;;;;5041762;28;20115;-62
2022/01/28 11:38:02;;;;;;;21.33;3.58;;;;;;;;;;5045601;28;20400;-63
2022/01/28 11:40:28;;;;;;;33.53;4.82;;;;;;;;;;5047007;28;20554;-62
2022/01/28 11:43:13;;;;;;;22.27;4.03;;;;;;;;;;5043609;28;20053;-62
2022/01/28 11:45:45;;;;;;;24.08;4.90;;;;;;;;;;5049696;28;20083;-62
2022/01/28 11:48:11;;;;;;;26.05;4.68;;;;;;;;;;5045984;28;20048;-62
2022/01/28 11:50:37;;;;;;;29.52;5.13;;;;;;;;;;5047303;28;20036;-62
2022/01/28 11:53:21;;;;;;;18.98;3.53;;;;;;;;;;5049440;28;20054;-62
2022/01/28 11:56:00;;;;;;;21.40;3.30;;;;;;;;;;5044319;28;20527;-62
2022/01/28 11:58:46;;;;;;;32.35;4.10;;;;;;;;;;5041524;28;20041;-62
2022/01/28 12:01:12;;;;;;;17.45;3.42;;;;;;;;;;5049809;28;20044;-62
2022/01/28 12:03:39;;;;;;;20.52;3.53;;;;;;;;;;5043319;28;20069;-63
2022/01/28 12:06:08;;;;;;;25.10;3.97;;;;;;;;;;5044819;28;20049;-63
2022/01/28 12:08:35;;;;;;;24.95;4.20;;;;;;;;;;5045631;28;20056;-63
2022/01/28 12:11:05;;;;;;;30.48;4.60;;;;;;;;;;5039079;28;20045;-63
2022/01/28 12:13:33;;;;;;;25.17;3.67;;;;;;;;;;5042499;28;20182;-63
2022/01/28 12:16:04;;;;;;;21.05;3.63;;;;;;;;;;5037551;28;20401;-62
2022/01/28 12:18:45;;;;;;;26.63;6.22;;;;;;;;;;5041007;28;20117;-63
2022/01/28 12:21:14;;;;;;;22.42;3.63;;;;;;;;;;5038152;28;20045;-63
2022/01/28 12:23:40;;;;;;;24.08;3.30;;;;;;;;;;5059286;28;20037;-63
2022/01/28 12:26:06;;;;;;;17.88;3.78;;;;;;;;;;5052003;28;20124;-63
2022/01/28 12:28:33;;;;;;;23.23;3.42;;;;;;;;;;5043811;28;20085;-72
2022/01/28 12:31:00;;;;;;;25.05;3.33;;;;;;;;;;5039723;28;20044;-61
2022/01/28 12:33:29;;;;;;;28.13;4.15;;;;;;;;;;5044306;28;20045;-62
2022/01/28 12:35:57;;;;;;;18.67;3.15;;;;;;;;;;5046502;28;20167;-63
2022/01/28 12:38:26;;;;;;;17.67;3.40;;;;;;;;;;5043715;28;20048;-62
2022/01/28 12:40:54;;;;;;;22.67;5.10;;;;;;;;;;5040241;28;20040;-62
2022/01/28 12:43:24;;;;;;;25.30;3.85;;;;;;;;;;5039097;28;20056;-62
2022/01/28 12:46:04;;;;;;;20.85;4.05;;;;;;;;;;5037450;28;20042;-62
2022/01/28 12:48:31;;;;;;;19.33;3.70;;;;;;;;;;5048072;28;20037;-62
2022/01/28 12:50:57;;;;;;;26.60;3.78;;;;;;;;;;5041514;28;20043;-62
2022/01/28 12:53:28;;;;;;;24.77;4.07;;;;;;;;;;5043335;28;20077;-63
2022/01/28 12:55:54;;;;;;;19.52;3.63;;;;;;;;;;5043380;28;20042;-64
2022/01/28 12:58:30;;;;;;;15.15;2.53;;;;;;;;;;5041871;28;20401;-63
2022/01/28 13:01:03;;;;;;;18.73;3.25;;;;;;;;;;5039586;28;20144;-63
2022/01/28 13:03:34;;;;;;;19.38;2.80;;;;;;;;;;5038544;28;20438;-62
2022/01/28 13:06:22;;;;;;;18.08;3.67;;;;;;;;;;5035150;28;20366;-62
2022/01/28 13:08:49;;;;;;;26.50;3.28;;;;;;;;;;5036107;28;20105;-62
2022/01/28 13:11:15;;;;;;;17.38;3.65;;;;;;;;;;5038037;28;20041;-63
2022/01/28 13:13:48;;;;;;;19.98;3.28;;;;;;;;;;5040372;28;20412;-63
2022/01/28 13:16:14;;;;;;;17.73;5.35;;;;;;;;;;5046234;28;20041;-63
2022/01/28 13:18:54;;;;;;;17.30;3.30;;;;;;;;;;5046084;28;20094;-63
2022/01/28 13:21:22;;;;;;;24.52;3.65;;;;;;;;;;5044197;28;20753;-63
2022/01/28 13:23:48;;;;;;;20.77;3.70;;;;;;;;;;5042987;28;20120;-63
2022/01/28 13:26:14;;;;;;;29.63;3.53;;;;;;;;;;5044599;28;20456;-63
2022/01/28 13:28:41;;;;;;;25.42;3.55;;;;;;;;;;5040204;28;20071;-62
2022/01/28 13:31:07;;;;;;;14.23;3.60;;;;;;;;;;5039409;28;20041;-62
2022/01/28 13:33:33;;;;;;;22.25;3.03;;;;;;;;;;5038797;28;20052;-63
2022/01/28 13:36:01;;;;;;;20.75;2.47;;;;;;;;;;5044557;28;20090;-63
2022/01/28 13:38:34;;;;;;;15.93;2.67;;;;;;;;;;5050161;28;20045;-62
2022/01/28 13:41:00;;;;;;;15.13;2.75;;;;;;;;;;5049818;28;20037;-63
2022/01/28 13:43:28;;;;;;;16.98;2.80;;;;;;;;;;5063524;28;20420;-63
2022/01/28 13:45:58;;;;;;;15.80;2.83;;;;;;;;;;5052932;28;20536;-63
2022/01/28 13:48:34;;;;;;;21.30;2.45;;;;;;;;;;5046834;28;20087;-63
2022/01/28 13:51:05;;;;;;;14.73;3.08;;;;;;;;;;5043291;28;20136;-63
2022/01/28 13:54:15;;;;;;;21.85;4.00;;;;;;;;;;5051973;28;20071;-63
2022/01/28 13:56:32;;;;;;;13.95;2.88;;;;;;;;;;5047261;28;20396;-66
2022/01/28 13:58:58;;;;;;;21.95;3.65;;;;;;;;;;5044182;28;20123;-63
2022/01/28 14:01:25;;;;;;;19.13;3.70;;;;;;;;;;5035591;28;20033;-65
2022/01/28 14:03:54;;;;;;;16.42;2.85;;;;;;;;;;5039028;28;20139;-63
2022/01/28 14:06:22;;;;;;;19.45;3.10;;;;;;;;;;5044155;28;20041;-63
2022/01/28 14:08:51;;;;;;;17.15;2.30;;;;;;;;;;5044073;28;20041;-63
2022/01/28 14:11:22;;;;;;;19.05;3.42;;;;;;;;;;5048134;28;20493;-63
2022/01/28 14:14:11;;;;;;;13.40;2.58;;;;;;;;;;5046145;28;20048;-64
2022/01/28 14:16:37;;;;;;;24.52;2.78;;;;;;;;;;5048573;28;20068;-63
2022/01/28 14:19:04;;;;;;;17.27;3.25;;;;;;;;;;5044623;28;20041;-63
2022/01/28 14:21:30;;;;;;;22.80;2.88;;;;;;;;;;5045498;28;20045;-63
2022/01/28 14:23:56;;;;;;;18.95;2.80;;;;;;;;;;5042722;28;20048;-63
2022/01/28 14:26:23;;;;;;;16.20;1.92;;;;;;;;;;5042578;28;20498;-63
2022/01/28 14:31:16;;;;;;;15.32;2.33;;;;;;;;;;5048629;28;20060;-63
2022/01/28 14:33:45;;;;;;;14.88;2.42;;;;;;;;;;5046962;28;20045;-63
2022/01/28 14:36:11;;;;;;;14.00;2.50;;;;;;;;;;5047106;28;20045;-63
2022/01/28 14:38:37;;;;;;;15.45;2.90;;;;;;;;;;5051036;28;20041;-63
2022/01/28 14:41:03;;;;;;;17.60;2.35;;;;;;;;;;5047460;28;20429;-63
2022/01/28 14:43:29;;;;;;;18.70;3.38;;;;;;;;;;5056683;28;20053;-63
2022/01/28 14:45:56;;;;;;;18.98;2.40;;;;;;;;;;5035920;28;20052;-63
2022/01/28 14:48:22;;;;;;;23.60;3.25;;;;;;;;;;5044638;28;20095;-63
2022/01/28 14:50:49;;;;;;;15.13;3.03;;;;;;;;;;5050078;28;20037;-63
2022/01/28 14:53:15;;;;;;;19.42;4.03;;;;;;;;;;5047622;28;20057;-64
2022/01/28 14:55:43;;;;;;;21.08;3.05;;;;;;;;;;5042378;28;20125;-63
2022/01/28 14:58:09;;;;;;;15.95;2.30;;;;;;;;;;5042813;28;20492;-63
2022/01/28 15:00:35;;;;;;;12.05;2.00;;;;;;;;;;5035532;28;20048;-63
2022/01/28 15:03:02;;;;;;;20.95;2.85;;;;;;;;;;5044264;28;20041;-76
2022/01/28 15:05:29;;;;;;;11.38;2.53;;;;;;;;;;5050394;28;20415;-62
2022/01/28 15:07:55;;;;;;;20.55;2.75;;;;;;;;;;5052665;28;20465;-62
2022/01/28 15:10:27;;;;;;;15.35;2.40;;;;;;;;;;5051433;28;20118;-62
2022/01/28 15:12:54;;;;;;;16.17;2.10;;;;;;;;;;5052671;28;20037;-62
2022/01/28 15:15:20;;;;;;;15.38;2.63;;;;;;;;;;5050031;28;20084;-62
2022/01/28 15:17:46;;;;;;;24.33;2.70;;;;;;;;;;5055455;28;20080;-62
2022/01/28 15:20:12;;;;;;;16.85;2.40;;;;;;;;;;5051784;28;20041;-62
2022/01/28 15:22:38;;;;;;;14.93;2.40;;;;;;;;;;5047211;28;20041;-62
2022/01/28 15:25:05;;;;;;;14.63;2.00;;;;;;;;;;5054281;28;20051;-62
2022/01/28 15:27:32;;;;;;;15.88;2.70;;;;;;;;;;5047786;28;20071;-62
2022/01/28 15:30:03;;;;;;;14.13;2.08;;;;;;;;;;5053568;28;20068;-62
2022/01/28 15:37:59;;;;;;;23.23;2.80;;;;;;;;;;5051848;28;20040;-62
2022/01/28 15:40:26;;;;;;;12.98;2.00;;;;;;;;;;5050934;28;20727;-62
2022/01/28 15:42:54;;;;;;;18.58;2.38;;;;;;;;;;5060843;28;20052;-62
2022/01/28 15:45:22;;;;;;;24.02;2.58;;;;;;;;;;5051366;28;20079;-62
2022/01/28 15:47:48;;;;;;;20.13;2.78;;;;;;;;;;5045884;28;20087;-63